LiveATC.Net - Listen to live air traffic control over the Internet!


ICAO: KMLB  IATA: MLB   Airport: Melbourne International Airport
City: Melbourne   State/Province: Florida
Country: United States   Continent: North America
KMLB METAR Weather: KMLB 220353Z 19004KT 10SM CLR 23/22 A3009 RMK AO2 RAE07B25E47 SLP189 P0000 T02330222
KMLB Flight Activity (FlightAware)
KMLB Airport Info   (iFlightPlanner)
KMLB VFR Sectional Chart   (iFlightPlanner) 
KMLB IFR Low Chart   (iFlightPlanner) 

KMLB Twr/App
Feed Status: UP   Listeners: 0
Listen in your browser - HTML5 player (in browser, HTML5)
Click here to listen with your own player (launches your MP3 player)
Archive Access: KMLB Twr/App
FacilityFrequency
Melbourne Tower118.200
Orlando Approach132.650
Sponsored by:
Melbourne Area Pilots Association

NOTICE

Unauthorized use prohibited. See LiveATC.net Terms of Service


Airport/ARTCC Code
Frequency Search
(e.g., 124.400, 128.75)
Site-wide search
 


Browse Feeds
Top 50 Feeds
HF Oceanic Feeds
Coverage Map
Bad Weather Areas

LiveATC FAQ
Offer LiveATC feed
Contact LiveATC.net
Press Inquiries

LiveATC on iPhone
LiveATC on Android

Windows Phone
Windows 8/10

LiveATC Mobile
(Mobile browser)

ATC Audio Archives
Interesting Recordings

LiveATC Forums


Home Page
About LiveATC.net
Make a Donation
Terms of Use
Privacy Policy

Canadian Air Freqs

AIRMETs/SIGMETs

FAA Airport Status
NAS Status
Arrival Demand


Server Software By:
Icecast.org
Liquidsoap